Time;durP1;ratioP1;P1;durP2;ratioP2;P2;SDS_P1;SDS_P2;PMS_P1;PMS_P2;Temp;Humidity;BMP_temperature;BMP_pressure;BME280_temperature;BME280_humidity;BME280_pressure;Samples;Min_cycle;Max_cycle;Signal;HPM_P1;HPM_P2
2022/12/11 10:06:40;;;;;;;15.77;8.02;;;;;;;;;;5104566;27;20446;-54
2022/12/11 10:11:27;;;;;;;16.20;8.07;;;;;;;;;;5106012;27;20336;-56
2022/12/11 10:13:59;;;;;;;14.18;7.50;;;;;;;;;;5105895;28;20031;-52
2022/12/11 10:17:10;;;;;;;11.43;6.68;;;;;;;;;;5105949;27;20162;-49
2022/12/11 10:19:36;;;;;;;11.98;6.90;;;;;;;;;;5105976;28;20785;-50
2022/12/11 10:22:03;;;;;;;11.27;6.20;;;;;;;;;;5106095;28;20022;-51
2022/12/11 10:24:34;;;;;;;12.82;7.07;;;;;;;;;;5104206;28;20387;-48
2022/12/11 10:27:08;;;;;;;15.55;8.40;;;;;;;;;;5105739;28;20043;-50
2022/12/11 10:29:34;;;;;;;14.82;6.95;;;;;;;;;;5103357;28;20044;-50
2022/12/11 10:32:00;;;;;;;12.90;6.93;;;;;;;;;;5105062;28;20028;-54
2022/12/11 10:34:34;;;;;;;12.02;6.43;;;;;;;;;;5105118;28;20135;-52
2022/12/11 10:37:00;;;;;;;13.40;6.72;;;;;;;;;;5124261;28;20027;-49
2022/12/11 10:39:26;;;;;;;11.65;6.68;;;;;;;;;;5124492;28;20524;-51
2022/12/11 10:41:53;;;;;;;21.20;10.02;;;;;;;;;;5109928;28;20023;-52
2022/12/11 10:44:20;;;;;;;20.60;10.23;;;;;;;;;;5111114;28;20513;-52
2022/12/11 10:46:47;;;;;;;20.35;9.23;;;;;;;;;;5105426;28;20109;-53
2022/12/11 10:49:21;;;;;;;19.58;8.82;;;;;;;;;;5105211;28;20103;-52
2022/12/11 10:51:47;;;;;;;18.80;8.73;;;;;;;;;;5105285;28;20070;-53
2022/12/11 10:54:30;;;;;;;25.77;12.25;;;;;;;;;;5105189;28;20035;-52
2022/12/11 10:56:57;;;;;;;22.42;9.70;;;;;;;;;;5104921;28;20032;-50
2022/12/11 10:59:42;;;;;;;19.88;9.23;;;;;;;;;;5104912;28;20024;-52
2022/12/11 11:02:30;;;;;;;19.83;10.40;;;;;;;;;;5104668;28;20020;-50
2022/12/11 11:04:57;;;;;;;16.67;8.88;;;;;;;;;;5092574;28;20032;-49
2022/12/11 11:07:25;;;;;;;14.90;7.90;;;;;;;;;;5105152;28;20513;-50
2022/12/11 11:09:53;;;;;;;17.42;9.10;;;;;;;;;;5104956;28;20028;-51
2022/12/11 11:12:26;;;;;;;18.55;9.07;;;;;;;;;;5105145;28;20016;-50
2022/12/11 11:14:59;;;;;;;17.87;9.27;;;;;;;;;;5104574;28;20024;-49
2022/12/11 11:17:25;;;;;;;15.53;7.90;;;;;;;;;;5105148;28;20266;-49
2022/12/11 11:19:51;;;;;;;17.80;8.52;;;;;;;;;;5104878;28;20019;-52
2022/12/11 11:22:18;;;;;;;14.40;7.30;;;;;;;;;;5105193;28;20042;-48
2022/12/11 11:24:46;;;;;;;14.18;7.00;;;;;;;;;;5104580;28;20107;-49
2022/12/11 11:27:25;;;;;;;16.20;8.18;;;;;;;;;;5096934;28;20513;-49
2022/12/11 11:29:53;;;;;;;16.05;9.00;;;;;;;;;;5070816;28;20028;-53
2022/12/11 11:32:22;;;;;;;14.95;8.45;;;;;;;;;;5087080;28;20019;-49
2022/12/11 11:34:48;;;;;;;14.27;7.80;;;;;;;;;;5111299;28;20532;-50
2022/12/11 11:37:33;;;;;;;17.40;8.48;;;;;;;;;;5106453;28;20032;-49
2022/12/11 11:40:11;;;;;;;20.40;9.95;;;;;;;;;;5090188;28;20050;-48
2022/12/11 11:42:40;;;;;;;21.73;11.60;;;;;;;;;;5090650;28;20401;-49
2022/12/11 11:45:12;;;;;;;20.42;10.68;;;;;;;;;;5090667;28;20421;-52
2022/12/11 11:47:44;;;;;;;21.67;11.07;;;;;;;;;;5090452;28;20103;-52
2022/12/11 11:50:10;;;;;;;20.50;10.45;;;;;;;;;;5089150;28;20036;-50
2022/12/11 11:52:55;;;;;;;16.80;8.63;;;;;;;;;;5088896;28;20034;-51
2022/12/11 11:55:32;;;;;;;16.17;7.95;;;;;;;;;;5087701;28;20144;-49
2022/12/11 11:58:02;;;;;;;16.48;8.60;;;;;;;;;;5088011;28;20029;-51
2022/12/11 12:00:29;;;;;;;19.83;9.75;;;;;;;;;;5087675;28;20032;-52
2022/12/11 12:03:15;;;;;;;19.42;9.15;;;;;;;;;;5087808;28;20020;-51
2022/12/11 12:05:50;;;;;;;26.38;12.02;;;;;;;;;;5085411;28;20040;-53
2022/12/11 12:08:21;;;;;;;25.48;12.13;;;;;;;;;;5086285;28;20043;-51
2022/12/11 12:10:52;;;;;;;25.90;12.00;;;;;;;;;;5087225;28;20058;-52
2022/12/11 12:13:44;;;;;;;24.30;11.95;;;;;;;;;;5087729;28;20343;-54
2022/12/11 12:16:23;;;;;;;21.77;11.35;;;;;;;;;;5081750;28;20119;-55
2022/12/11 12:18:49;;;;;;;19.55;11.10;;;;;;;;;;5086839;28;20026;-52
2022/12/11 12:21:22;;;;;;;17.38;9.43;;;;;;;;;;5086077;28;20031;-54
2022/12/11 12:23:48;;;;;;;17.20;10.00;;;;;;;;;;5085694;28;20413;-55
2022/12/11 12:26:17;;;;;;;17.15;9.65;;;;;;;;;;5086465;28;20098;-52
2022/12/11 12:29:02;;;;;;;21.27;10.50;;;;;;;;;;5086987;28;20031;-53
2022/12/11 12:31:37;;;;;;;17.60;9.48;;;;;;;;;;5086727;28;20028;-52
2022/12/11 12:34:22;;;;;;;17.05;9.05;;;;;;;;;;5086730;28;20035;-52
2022/12/11 12:36:56;;;;;;;17.63;9.07;;;;;;;;;;5086353;28;20036;-50
2022/12/11 12:39:25;;;;;;;23.88;10.55;;;;;;;;;;5085616;28;20024;-53
2022/12/11 12:42:01;;;;;;;23.80;11.25;;;;;;;;;;5086302;28;20497;-55
2022/12/11 12:44:32;;;;;;;20.42;9.85;;;;;;;;;;5080059;28;20123;-54
2022/12/11 12:47:24;;;;;;;21.42;11.07;;;;;;;;;;5082446;28;20036;-53
2022/12/11 12:49:51;;;;;;;19.98;10.07;;;;;;;;;;5082667;28;20052;-51
2022/12/11 12:52:20;;;;;;;20.27;10.48;;;;;;;;;;5087134;28;20462;-54
2022/12/11 12:55:12;;;;;;;22.60;11.25;;;;;;;;;;5084893;28;20252;-53
2022/12/11 12:57:34;;;;;;;19.65;9.88;;;;;;;;;;5085117;28;20036;-54
2022/12/11 13:00:00;;;;;;;24.95;13.25;;;;;;;;;;5084684;28;20506;-52
2022/12/11 13:02:27;;;;;;;23.30;11.82;;;;;;;;;;5085377;28;20036;-55
2022/12/11 13:04:57;;;;;;;22.65;11.40;;;;;;;;;;5086203;28;20111;-52
2022/12/11 13:07:28;;;;;;;19.95;9.80;;;;;;;;;;5085913;28;20031;-54
2022/12/11 13:09:57;;;;;;;21.02;10.57;;;;;;;;;;5086303;28;20021;-56
2022/12/11 13:12:31;;;;;;;18.10;10.02;;;;;;;;;;5085312;28;20379;-55
2022/12/11 13:14:57;;;;;;;17.15;9.50;;;;;;;;;;5085199;28;20032;-55
2022/12/11 13:17:41;;;;;;;19.13;9.05;;;;;;;;;;5086075;28;20445;-54
2022/12/11 13:20:24;;;;;;;18.80;9.55;;;;;;;;;;5084143;28;20040;-53
2022/12/11 13:22:59;;;;;;;16.73;9.50;;;;;;;;;;5086403;28;20498;-52
2022/12/11 13:25:30;;;;;;;16.75;9.43;;;;;;;;;;5085324;28;20129;-52
2022/12/11 13:28:20;;;;;;;19.60;9.88;;;;;;;;;;5085432;28;20028;-52
2022/12/11 13:31:08;;;;;;;27.48;13.52;;;;;;;;;;5087857;28;20205;-53
2022/12/11 13:33:38;;;;;;;22.55;11.95;;;;;;;;;;5082560;28;20507;-53
2022/12/11 13:36:13;;;;;;;24.50;12.65;;;;;;;;;;5082876;28;20028;-51
2022/12/11 13:38:45;;;;;;;22.60;11.52;;;;;;;;;;5085498;28;20035;-53
2022/12/11 13:41:11;;;;;;;21.40;10.98;;;;;;;;;;5084987;28;20020;-51
2022/12/11 13:43:38;;;;;;;20.85;10.98;;;;;;;;;;5085854;28;20031;-51
2022/12/11 13:46:06;;;;;;;19.63;10.00;;;;;;;;;;5086088;28;20393;-51
2022/12/11 13:48:41;;;;;;;19.35;10.30;;;;;;;;;;5085468;28;20016;-53
2022/12/11 13:51:07;;;;;;;19.88;10.32;;;;;;;;;;5081447;28;20032;-51
2022/12/11 13:53:33;;;;;;;22.48;10.70;;;;;;;;;;5085320;28;20135;-55
2022/12/11 13:56:03;;;;;;;18.92;10.55;;;;;;;;;;5085219;28;20039;-53
2022/12/11 13:58:33;;;;;;;20.83;10.70;;;;;;;;;;5084146;28;20031;-54
2022/12/11 14:01:02;;;;;;;21.67;11.27;;;;;;;;;;5082818;28;20027;-52
2022/12/11 14:03:30;;;;;;;19.83;10.80;;;;;;;;;;5085148;28;20040;-51
2022/12/11 14:05:56;;;;;;;21.83;10.65;;;;;;;;;;5073213;28;20446;-53
2022/12/11 14:08:25;;;;;;;21.42;10.80;;;;;;;;;;5084146;28;20031;-50
2022/12/11 14:10:52;;;;;;;18.80;10.23;;;;;;;;;;5081496;28;20024;-52
2022/12/11 14:13:18;;;;;;;20.02;10.07;;;;;;;;;;5084052;28;20413;-54
2022/12/11 14:15:44;;;;;;;20.27;10.00;;;;;;;;;;5084374;28;20024;-51
2022/12/11 14:18:22;;;;;;;19.30;10.43;;;;;;;;;;5082885;28;20226;-52
2022/12/11 14:20:58;;;;;;;20.83;10.27;;;;;;;;;;5082981;28;20020;-53
2022/12/11 14:23:26;;;;;;;20.02;10.40;;;;;;;;;;5087210;28;20032;-52
2022/12/11 14:26:10;;;;;;;21.55;10.40;;;;;;;;;;5085278;28;20517;-52
2022/12/11 14:28:38;;;;;;;24.02;12.23;;;;;;;;;;5084671;28;20055;-53
2022/12/11 14:31:05;;;;;;;23.15;12.13;;;;;;;;;;5084371;28;20028;-52
2022/12/11 14:33:33;;;;;;;21.08;11.02;;;;;;;;;;5083337;28;20433;-51
2022/12/11 14:36:00;;;;;;;20.85;11.10;;;;;;;;;;5084731;28;20028;-52
2022/12/11 14:38:28;;;;;;;19.50;10.48;;;;;;;;;;5085329;28;20398;-50
2022/12/11 14:40:56;;;;;;;18.42;10.05;;;;;;;;;;5085847;28;20032;-50
2022/12/11 14:43:24;;;;;;;18.55;10.32;;;;;;;;;;5086070;28;20498;-50
2022/12/11 14:45:53;;;;;;;15.85;8.68;;;;;;;;;;5086626;28;20122;-52
2022/12/11 14:48:21;;;;;;;16.70;9.32;;;;;;;;;;5086450;28;20740;-51
2022/12/11 14:50:49;;;;;;;15.63;8.60;;;;;;;;;;5086641;28;20043;-52
2022/12/11 14:53:27;;;;;;;16.92;8.57;;;;;;;;;;5086355;28;20032;-50
2022/12/11 14:55:55;;;;;;;17.35;9.30;;;;;;;;;;5086303;28;20085;-52
2022/12/11 14:58:22;;;;;;;20.15;10.07;;;;;;;;;;5086475;28;20494;-50
2022/12/11 15:00:59;;;;;;;19.52;10.95;;;;;;;;;;5086544;28;20048;-50
2022/12/11 15:03:29;;;;;;;18.92;9.77;;;;;;;;;;5089270;28;20047;-54
2022/12/11 15:05:57;;;;;;;20.40;10.30;;;;;;;;;;5089731;28;20050;-51
2022/12/11 15:08:29;;;;;;;18.17;9.68;;;;;;;;;;5089403;28;20024;-51
2022/12/11 15:11:11;;;;;;;21.50;10.65;;;;;;;;;;5089927;28;20031;-53
2022/12/11 15:13:50;;;;;;;20.60;10.75;;;;;;;;;;5089790;28;20068;-51
2022/12/11 15:16:17;;;;;;;19.77;10.00;;;;;;;;;;5089912;28;20032;-52
2022/12/11 15:18:43;;;;;;;18.85;9.82;;;;;;;;;;5089796;28;20078;-51
2022/12/11 15:21:10;;;;;;;19.75;10.50;;;;;;;;;;5089372;28;20107;-49
2022/12/11 15:23:49;;;;;;;17.42;9.63;;;;;;;;;;5089477;28;20028;-50
2022/12/11 15:26:15;;;;;;;22.98;11.85;;;;;;;;;;5089441;28;20032;-51
2022/12/11 15:28:41;;;;;;;28.15;15.30;;;;;;;;;;5089358;28;20030;-51
2022/12/11 15:31:30;;;;;;;33.75;17.75;;;;;;;;;;5089299;28;20571;-49
2022/12/11 15:33:56;;;;;;;35.25;17.60;;;;;;;;;;5084011;28;20036;-51
2022/12/11 15:36:25;;;;;;;28.33;14.27;;;;;;;;;;5089437;28;20036;-50
2022/12/11 15:38:51;;;;;;;26.75;13.65;;;;;;;;;;5089152;28;20019;-51
2022/12/11 15:41:23;;;;;;;25.77;12.50;;;;;;;;;;5089355;28;20040;-52
2022/12/11 15:43:50;;;;;;;24.38;12.05;;;;;;;;;;5089664;28;20032;-52
2022/12/11 15:46:16;;;;;;;24.25;11.52;;;;;;;;;;5089227;28;20027;-50
2022/12/11 15:48:42;;;;;;;21.73;10.73;;;;;;;;;;5088859;28;20110;-50
2022/12/11 15:51:08;;;;;;;23.25;11.20;;;;;;;;;;5088601;28;20107;-52
2022/12/11 15:53:34;;;;;;;21.33;10.88;;;;;;;;;;5088802;28;20032;-54
2022/12/11 15:56:00;;;;;;;22.30;10.68;;;;;;;;;;5089007;28;20020;-53
2022/12/11 15:58:27;;;;;;;25.17;11.88;;;;;;;;;;5088639;28;20502;-50
2022/12/11 16:00:54;;;;;;;27.00;11.90;;;;;;;;;;5088884;28;20044;-51
2022/12/11 16:03:21;;;;;;;22.63;11.07;;;;;;;;;;5088858;28;20089;-51
2022/12/11 16:05:48;;;;;;;25.63;12.07;;;;;;;;;;5090586;28;20039;-50
2022/12/11 16:08:16;;;;;;;25.13;12.68;;;;;;;;;;5089773;28;20074;-50
2022/12/11 16:10:45;;;;;;;26.20;12.18;;;;;;;;;;5070119;28;20032;-52
2022/12/11 16:13:12;;;;;;;28.02;12.80;;;;;;;;;;5069747;28;20085;-51
2022/12/11 16:15:40;;;;;;;29.05;12.57;;;;;;;;;;5080124;28;20031;-51
2022/12/11 16:18:07;;;;;;;25.30;11.60;;;;;;;;;;5081329;28;20036;-52
2022/12/11 16:20:34;;;;;;;25.88;11.43;;;;;;;;;;5079178;28;20016;-50
2022/12/11 16:23:01;;;;;;;22.92;11.63;;;;;;;;;;5069398;28;20025;-52
2022/12/11 16:25:27;;;;;;;22.83;10.90;;;;;;;;;;5069246;28;20090;-49
2022/12/11 16:27:55;;;;;;;27.48;12.15;;;;;;;;;;5072247;28;20078;-49
2022/12/11 16:30:21;;;;;;;26.48;12.38;;;;;;;;;;5084817;28;20024;-50
2022/12/11 16:32:47;;;;;;;26.83;12.52;;;;;;;;;;5089738;28;20031;-51
2022/12/11 16:35:13;;;;;;;23.92;10.95;;;;;;;;;;5071043;28;20089;-50
2022/12/11 16:37:40;;;;;;;25.45;10.88;;;;;;;;;;5077651;28;20583;-49
2022/12/11 16:40:07;;;;;;;21.38;10.80;;;;;;;;;;5084953;28;20137;-53
2022/12/11 16:42:33;;;;;;;20.52;10.45;;;;;;;;;;5083108;28;20587;-50
2022/12/11 16:45:10;;;;;;;21.67;10.95;;;;;;;;;;5078832;28;20024;-52
2022/12/11 16:47:36;;;;;;;19.70;10.25;;;;;;;;;;5102757;27;20447;-51
2022/12/11 16:50:02;;;;;;;21.65;11.05;;;;;;;;;;5074558;28;20035;-50
2022/12/11 16:52:28;;;;;;;23.75;12.43;;;;;;;;;;5080990;28;20027;-49
2022/12/11 16:54:56;;;;;;;22.92;11.65;;;;;;;;;;5089069;28;20495;-51
2022/12/11 16:57:22;;;;;;;23.58;11.68;;;;;;;;;;5090038;28;20042;-49
2022/12/11 16:59:48;;;;;;;20.88;10.70;;;;;;;;;;5088263;28;20028;-53
2022/12/11 17:02:14;;;;;;;23.00;11.65;;;;;;;;;;5090196;28;20343;-49
2022/12/11 17:04:40;;;;;;;19.73;10.68;;;;;;;;;;5089425;28;20100;-50
2022/12/11 17:07:06;;;;;;;20.67;10.27;;;;;;;;;;5088400;28;20028;-52
2022/12/11 17:09:33;;;;;;;19.83;10.60;;;;;;;;;;5079592;28;20119;-53
2022/12/11 17:12:00;;;;;;;22.42;11.57;;;;;;;;;;5100890;28;20035;-54
2022/12/11 17:14:26;;;;;;;22.67;11.10;;;;;;;;;;5087061;28;20073;-50
2022/12/11 17:16:53;;;;;;;19.48;9.93;;;;;;;;;;5083066;28;20101;-49
2022/12/11 17:19:19;;;;;;;19.58;10.10;;;;;;;;;;5081423;28;20098;-50
2022/12/11 17:21:48;;;;;;;20.65;10.20;;;;;;;;;;5084426;28;20116;-51
2022/12/11 17:24:14;;;;;;;23.70;11.07;;;;;;;;;;5087731;28;20601;-51
2022/12/11 17:26:41;;;;;;;24.17;11.93;;;;;;;;;;5087699;28;20272;-49
2022/12/11 17:29:07;;;;;;;26.65;13.23;;;;;;;;;;5098160;28;20498;-50
2022/12/11 17:31:34;;;;;;;20.23;9.80;;;;;;;;;;5096397;28;20028;-51
2022/12/11 17:34:01;;;;;;;21.33;10.93;;;;;;;;;;5096498;28;20032;-50
2022/12/11 17:36:27;;;;;;;19.77;9.95;;;;;;;;;;5108338;28;20024;-49
2022/12/11 17:38:53;;;;;;;23.75;11.95;;;;;;;;;;5092040;28;20027;-49
2022/12/11 17:41:20;;;;;;;23.35;11.27;;;;;;;;;;5088501;28;20092;-50
2022/12/11 17:43:47;;;;;;;25.73;12.57;;;;;;;;;;5088289;28;20047;-50
2022/12/11 17:46:13;;;;;;;22.30;10.95;;;;;;;;;;5088002;28;20028;-50
2022/12/11 17:48:39;;;;;;;22.98;12.23;;;;;;;;;;5087158;28;20034;-50
2022/12/11 17:51:07;;;;;;;22.42;11.20;;;;;;;;;;5099939;28;20040;-50
2022/12/11 17:53:35;;;;;;;22.33;11.20;;;;;;;;;;5086352;28;20036;-49
2022/12/11 17:56:05;;;;;;;23.48;11.25;;;;;;;;;;5086230;28;20458;-52
2022/12/11 17:58:31;;;;;;;21.40;9.85;;;;;;;;;;5092919;28;20023;-52
2022/12/11 18:00:58;;;;;;;22.23;10.60;;;;;;;;;;5087780;28;20436;-52
2022/12/11 18:03:27;;;;;;;20.13;9.75;;;;;;;;;;5074501;28;20482;-50
2022/12/11 18:05:54;;;;;;;21.10;10.95;;;;;;;;;;5085551;28;20063;-49
2022/12/11 18:08:21;;;;;;;29.23;12.18;;;;;;;;;;5073458;28;20035;-53
2022/12/11 18:10:47;;;;;;;28.52;12.65;;;;;;;;;;5085831;28;20414;-52
2022/12/11 18:13:14;;;;;;;40.70;15.57;;;;;;;;;;5085209;28;20032;-49
2022/12/11 18:15:40;;;;;;;48.13;17.23;;;;;;;;;;5086140;28;20024;-49
2022/12/11 18:18:07;;;;;;;48.28;16.95;;;;;;;;;;5072620;28;20024;-53
2022/12/11 18:20:34;;;;;;;46.97;16.50;;;;;;;;;;5086110;28;20020;-51
2022/12/11 18:23:00;;;;;;;50.72;18.33;;;;;;;;;;5082638;28;20020;-53
2022/12/11 18:25:26;;;;;;;48.15;19.52;;;;;;;;;;5087396;28;20036;-50
2022/12/11 18:27:56;;;;;;;36.35;14.80;;;;;;;;;;5094961;28;20067;-50
2022/12/11 18:30:23;;;;;;;34.00;14.15;;;;;;;;;;5090528;28;20069;-52
2022/12/11 18:32:49;;;;;;;47.17;17.65;;;;;;;;;;5095607;28;20662;-49
2022/12/11 18:35:15;;;;;;;42.05;16.40;;;;;;;;;;5106720;28;20562;-49
2022/12/11 18:37:41;;;;;;;37.63;15.48;;;;;;;;;;5091708;28;20020;-49
2022/12/11 18:40:08;;;;;;;32.92;14.57;;;;;;;;;;5090549;28;20055;-50
2022/12/11 18:42:34;;;;;;;29.05;12.75;;;;;;;;;;5089812;28;20030;-49
2022/12/11 18:45:00;;;;;;;30.33;13.88;;;;;;;;;;5089678;28;20032;-50
2022/12/11 18:47:27;;;;;;;27.80;13.07;;;;;;;;;;5092119;28;20120;-49
2022/12/11 18:49:53;;;;;;;24.98;12.68;;;;;;;;;;5109026;28;20031;-49
2022/12/11 18:52:19;;;;;;;26.13;12.68;;;;;;;;;;5102684;28;20429;-48
2022/12/11 18:54:46;;;;;;;27.58;13.07;;;;;;;;;;5081307;28;20020;-50
2022/12/11 18:57:12;;;;;;;26.42;13.30;;;;;;;;;;5086694;28;20451;-50
2022/12/11 18:59:38;;;;;;;23.13;12.48;;;;;;;;;;5080785;28;20024;-50
2022/12/11 19:02:04;;;;;;;26.23;12.80;;;;;;;;;;5089349;28;20077;-53
2022/12/11 19:04:30;;;;;;;27.40;13.18;;;;;;;;;;5093749;28;20034;-51
2022/12/11 19:06:59;;;;;;;22.67;11.88;;;;;;;;;;5089790;28;20151;-50
2022/12/11 19:09:26;;;;;;;26.00;12.35;;;;;;;;;;5088685;28;20397;-49
2022/12/11 19:11:52;;;;;;;22.90;11.85;;;;;;;;;;5089742;28;20027;-50
2022/12/11 19:14:18;;;;;;;22.10;11.77;;;;;;;;;;5087093;28;20032;-52
2022/12/11 19:16:44;;;;;;;21.75;11.63;;;;;;;;;;5086846;28;20581;-49
2022/12/11 19:19:12;;;;;;;24.42;12.23;;;;;;;;;;5087219;28;20406;-51
2022/12/11 19:21:39;;;;;;;23.23;12.23;;;;;;;;;;5087772;28;20312;-50
2022/12/11 19:24:06;;;;;;;20.90;10.88;;;;;;;;;;5088228;28;20039;-50
2022/12/11 19:26:32;;;;;;;25.52;13.65;;;;;;;;;;5084890;28;20035;-49
2022/12/11 19:28:59;;;;;;;21.85;12.57;;;;;;;;;;5087655;28;20085;-49
2022/12/11 19:31:25;;;;;;;20.88;11.15;;;;;;;;;;5084430;28;20043;-49
2022/12/11 19:33:52;;;;;;;24.08;12.23;;;;;;;;;;5086372;28;20034;-50
2022/12/11 19:36:19;;;;;;;23.75;13.07;;;;;;;;;;5087056;28;20051;-50
2022/12/11 19:38:45;;;;;;;23.50;12.60;;;;;;;;;;5087501;28;20107;-52
2022/12/11 19:41:16;;;;;;;23.02;12.25;;;;;;;;;;5086222;28;20142;-49
2022/12/11 19:43:42;;;;;;;23.58;12.70;;;;;;;;;;5087033;28;20035;-50
2022/12/11 19:46:09;;;;;;;23.90;12.52;;;;;;;;;;5085635;28;20516;-51
2022/12/11 19:48:40;;;;;;;25.67;12.98;;;;;;;;;;5086927;28;20032;-51
2022/12/11 19:51:10;;;;;;;21.10;10.85;;;;;;;;;;5086918;28;20029;-51
2022/12/11 19:53:36;;;;;;;19.98;11.00;;;;;;;;;;5086986;28;20036;-51
2022/12/11 19:56:03;;;;;;;25.05;12.30;;;;;;;;;;5087380;28;20027;-50
2022/12/11 19:58:31;;;;;;;21.25;11.50;;;;;;;;;;5086731;28;20054;-49
2022/12/11 20:00:57;;;;;;;24.17;12.75;;;;;;;;;;5087935;28;20059;-49
2022/12/11 20:03:23;;;;;;;20.45;10.98;;;;;;;;;;5087089;28;20086;-51
2022/12/11 20:05:49;;;;;;;24.00;11.52;;;;;;;;;;5085725;28;20020;-49
2022/12/11 20:08:16;;;;;;;22.95;11.65;;;;;;;;;;5086375;28;20060;-49
2022/12/11 20:10:42;;;;;;;21.90;11.20;;;;;;;;;;5086984;28;20402;-50
2022/12/11 20:13:08;;;;;;;27.83;13.07;;;;;;;;;;5086950;28;20028;-50
2022/12/11 20:15:34;;;;;;;22.33;11.50;;;;;;;;;;5087511;28;20158;-50
2022/12/11 20:18:00;;;;;;;25.38;12.52;;;;;;;;;;5087654;28;20378;-50
2022/12/11 20:20:27;;;;;;;29.70;14.38;;;;;;;;;;5075538;28;20033;-50
2022/12/11 20:22:54;;;;;;;31.52;15.18;;;;;;;;;;5080805;28;20039;-51
2022/12/11 20:25:20;;;;;;;33.10;15.48;;;;;;;;;;5087076;28;20450;-49
2022/12/11 20:27:46;;;;;;;33.03;15.05;;;;;;;;;;5087566;28;20032;-50
2022/12/11 20:30:13;;;;;;;41.55;17.85;;;;;;;;;;5085528;28;20111;-53
2022/12/11 20:32:40;;;;;;;37.13;17.48;;;;;;;;;;5087287;28;20579;-52
2022/12/11 20:35:06;;;;;;;36.72;16.80;;;;;;;;;;5076120;28;20409;-53
2022/12/11 20:37:32;;;;;;;29.70;14.77;;;;;;;;;;5086774;28;20032;-49
2022/12/11 20:39:58;;;;;;;31.05;15.63;;;;;;;;;;5087069;28;20027;-51
2022/12/11 20:42:25;;;;;;;30.33;15.27;;;;;;;;;;5106577;28;20099;-50
2022/12/11 20:44:51;;;;;;;34.38;17.85;;;;;;;;;;5106342;28;20019;-51
2022/12/11 20:47:21;;;;;;;40.47;19.70;;;;;;;;;;5098183;28;20036;-50
2022/12/11 20:49:47;;;;;;;37.17;19.02;;;;;;;;;;5085125;28;20032;-50
2022/12/11 20:52:13;;;;;;;52.42;25.20;;;;;;;;;;5068538;28;20024;-51
2022/12/11 20:54:39;;;;;;;53.13;25.17;;;;;;;;;;5085534;28;20531;-50
2022/12/11 20:57:05;;;;;;;47.83;22.85;;;;;;;;;;5085207;28;20065;-49
2022/12/11 20:59:31;;;;;;;41.58;21.15;;;;;;;;;;5085550;28;20430;-52
2022/12/11 21:01:57;;;;;;;37.03;18.25;;;;;;;;;;5086474;28;20522;-52
2022/12/11 21:04:24;;;;;;;34.17;17.67;;;;;;;;;;5079821;28;20432;-49
2022/12/11 21:06:54;;;;;;;34.10;17.23;;;;;;;;;;5086478;28;20028;-50
2022/12/11 21:09:21;;;;;;;28.92;15.18;;;;;;;;;;5086421;28;20502;-50
2022/12/11 21:11:47;;;;;;;28.80;14.88;;;;;;;;;;5073849;28;20522;-49
2022/12/11 21:14:14;;;;;;;27.38;14.35;;;;;;;;;;5065771;28;20032;-53
2022/12/11 21:16:40;;;;;;;26.15;12.82;;;;;;;;;;5065916;28;20115;-50
2022/12/11 21:19:06;;;;;;;28.70;13.50;;;;;;;;;;5076537;28;20035;-50
2022/12/11 21:21:32;;;;;;;24.85;13.20;;;;;;;;;;5085650;28;20036;-53
2022/12/11 21:23:58;;;;;;;25.48;13.10;;;;;;;;;;5085152;28;20569;-49
2022/12/11 21:26:24;;;;;;;26.95;14.38;;;;;;;;;;5095322;28;20447;-52
2022/12/11 21:28:50;;;;;;;25.38;14.35;;;;;;;;;;5105342;28;20052;-50
2022/12/11 21:31:17;;;;;;;29.92;14.75;;;;;;;;;;5076002;28;20032;-51
2022/12/11 21:33:43;;;;;;;22.08;11.95;;;;;;;;;;5078550;28;20035;-51
2022/12/11 21:36:10;;;;;;;24.95;12.68;;;;;;;;;;5085502;28;20450;-51
2022/12/11 21:38:36;;;;;;;25.35;12.88;;;;;;;;;;5085739;28;20024;-49
2022/12/11 21:41:19;;;;;;;24.40;13.70;;;;;;;;;;5085829;28;20020;-52
2022/12/11 21:43:47;;;;;;;28.25;14.70;;;;;;;;;;5085820;28;20021;-51
2022/12/11 21:46:17;;;;;;;27.08;13.02;;;;;;;;;;5085120;28;20070;-50
2022/12/11 21:48:43;;;;;;;28.40;14.95;;;;;;;;;;5085605;28;20115;-49
2022/12/11 21:51:11;;;;;;;29.27;14.05;;;;;;;;;;5085254;28;20557;-52
2022/12/11 21:53:37;;;;;;;24.35;12.95;;;;;;;;;;5084200;28;20036;-50
2022/12/11 21:56:04;;;;;;;25.73;12.38;;;;;;;;;;5084431;28;20028;-50
2022/12/11 21:58:30;;;;;;;24.15;12.45;;;;;;;;;;5084094;28;20016;-53
2022/12/11 22:00:56;;;;;;;28.83;14.18;;;;;;;;;;5085724;28;20024;-52
2022/12/11 22:03:22;;;;;;;30.63;14.73;;;;;;;;;;5085101;28;20103;-49
2022/12/11 22:05:49;;;;;;;30.05;14.13;;;;;;;;;;5085624;28;20100;-50
2022/12/11 22:08:15;;;;;;;33.63;14.40;;;;;;;;;;5085517;28;20036;-50
2022/12/11 22:10:42;;;;;;;31.73;15.32;;;;;;;;;;5085061;28;20027;-53
2022/12/11 22:13:08;;;;;;;27.95;13.02;;;;;;;;;;5085964;28;20052;-49
2022/12/11 22:15:34;;;;;;;27.50;13.30;;;;;;;;;;5083954;28;20453;-50
2022/12/11 22:18:00;;;;;;;29.50;12.85;;;;;;;;;;5084362;28;20175;-50
2022/12/11 22:20:26;;;;;;;28.52;13.65;;;;;;;;;;5084792;28;20031;-52
2022/12/11 22:22:52;;;;;;;31.67;14.98;;;;;;;;;;5085448;28;20024;-49
2022/12/11 22:25:18;;;;;;;33.75;15.57;;;;;;;;;;5079868;28;20380;-51
2022/12/11 22:27:44;;;;;;;31.73;15.38;;;;;;;;;;5068352;28;20082;-50
2022/12/11 22:30:10;;;;;;;33.53;15.63;;;;;;;;;;5083792;28;20510;-50
2022/12/11 22:32:36;;;;;;;33.58;15.23;;;;;;;;;;5085281;28;20028;-50
2022/12/11 22:35:03;;;;;;;33.65;15.55;;;;;;;;;;5084846;28;20063;-53
2022/12/11 22:37:29;;;;;;;29.77;13.70;;;;;;;;;;5084889;28;20064;-50
2022/12/11 22:39:55;;;;;;;30.38;14.95;;;;;;;;;;5085413;28;20024;-49
2022/12/11 22:42:21;;;;;;;36.28;15.13;;;;;;;;;;5085003;28;20017;-50
2022/12/11 22:44:48;;;;;;;32.30;14.23;;;;;;;;;;5085557;28;20111;-53
2022/12/11 22:47:14;;;;;;;28.38;13.40;;;;;;;;;;5084893;28;20027;-50
2022/12/11 22:49:40;;;;;;;29.98;13.80;;;;;;;;;;5084673;28;20028;-50
2022/12/11 22:52:06;;;;;;;30.40;14.32;;;;;;;;;;5085065;28;20019;-50
2022/12/11 22:54:32;;;;;;;28.52;12.88;;;;;;;;;;5084789;28;20352;-52
2022/12/11 22:56:58;;;;;;;34.35;15.35;;;;;;;;;;5071655;28;20025;-50
2022/12/11 22:59:24;;;;;;;31.17;14.73;;;;;;;;;;5067554;28;20054;-50
2022/12/11 23:01:50;;;;;;;34.05;14.57;;;;;;;;;;5064994;28;20464;-52
2022/12/11 23:04:16;;;;;;;30.45;13.15;;;;;;;;;;5064482;28;20099;-50
2022/12/11 23:06:42;;;;;;;33.13;15.00;;;;;;;;;;5063423;28;20052;-49
2022/12/11 23:09:08;;;;;;;31.55;14.68;;;;;;;;;;5073237;28;20413;-49
2022/12/11 23:11:37;;;;;;;29.52;14.05;;;;;;;;;;5084953;28;20020;-50
2022/12/11 23:14:03;;;;;;;31.35;14.07;;;;;;;;;;5085170;28;20041;-51
2022/12/11 23:16:29;;;;;;;31.02;14.07;;;;;;;;;;5084471;28;20126;-51
2022/12/11 23:18:56;;;;;;;26.85;13.25;;;;;;;;;;5084708;28;20028;-50
2022/12/11 23:21:22;;;;;;;28.77;12.98;;;;;;;;;;5084533;28;20399;-50
2022/12/11 23:23:48;;;;;;;30.10;14.00;;;;;;;;;;5087052;28;20030;-50
2022/12/11 23:26:17;;;;;;;29.42;13.55;;;;;;;;;;5088350;28;20051;-49
2022/12/11 23:28:45;;;;;;;26.88;13.13;;;;;;;;;;5088193;28;20036;-51
2022/12/11 23:31:11;;;;;;;30.17;13.60;;;;;;;;;;5088283;28;20559;-50
2022/12/11 23:33:37;;;;;;;31.63;14.48;;;;;;;;;;5074259;28;20071;-51
2022/12/11 23:36:03;;;;;;;35.03;15.55;;;;;;;;;;5067778;28;20029;-51
2022/12/11 23:38:29;;;;;;;34.65;15.02;;;;;;;;;;5067464;28;20341;-49
2022/12/11 23:40:58;;;;;;;33.75;14.75;;;;;;;;;;5068051;28;20021;-53
2022/12/11 23:43:24;;;;;;;39.28;15.85;;;;;;;;;;5067656;28;20471;-53
2022/12/11 23:45:50;;;;;;;34.72;15.68;;;;;;;;;;5071678;28;20032;-51
2022/12/11 23:48:16;;;;;;;40.38;17.63;;;;;;;;;;5087657;28;20028;-49
2022/12/11 23:50:42;;;;;;;39.08;17.80;;;;;;;;;;5087564;28;20193;-51
2022/12/11 23:53:08;;;;;;;38.95;17.95;;;;;;;;;;5087990;28;20032;-51
2022/12/11 23:55:34;;;;;;;39.17;17.38;;;;;;;;;;5085174;28;20028;-52
2022/12/11 23:58:00;;;;;;;41.65;18.38;;;;;;;;;;5078073;28;20035;-52
